This is the latest recevied weather packets stored in our database for station/object YO6LRV-3. If no packets are shown the sender has not sent any weather packets the latest 10 day(s).
| Time | Temp. | Humidity | Pressure | Rain* | Wind** | Luminosity | Snow |
|---|---|---|---|---|---|---|---|
| 1778117774 | 17.22° C | 51% | 1013.2 hPa | - | - | - | - |
| 1778116867 | 17.22° C | 50% | 1013.1 hPa | - | - | - | - |
| 1778115970 | 17.22° C | 49% | 1013.1 hPa | - | - | - | - |
| 1778115069 | 17.22° C | 48% | 1013 hPa | - | - | - | - |
| 1778114169 | 17.22° C | 47% | 1013 hPa | - | - | - | - |
| 1778113276 | 17.22° C | 46% | 1013 hPa | - | - | - | - |
| 1778112376 | 17.78° C | 45% | 1013.1 hPa | - | - | - | - |
| 1778111476 | 17.78° C | 45% | 1013.2 hPa | - | - | - | - |
| 1778110576 | 18.33° C | 44% | 1013.1 hPa | - | - | - | - |
| 1778109676 | 18.33° C | 43% | 1013.2 hPa | - | - | - | - |
| 1778107876 | 18.89° C | 42% | 1013 hPa | - | - | - | - |
| 1778106975 | 18.89° C | 42% | 1013 hPa | - | - | - | - |
| 1778106075 | 18.89° C | 40% | 1012.8 hPa | - | - | - | - |
| 1778105175 | 19.44° C | 40% | 1013 hPa | - | - | - | - |
| 1778104275 | 18.89° C | 39% | 1012.2 hPa | - | - | - | - |
| 1778103375 | 19.44° C | 39% | 1013 hPa | - | - | - | - |
| 1778102475 | 19.44° C | 39% | 1012.8 hPa | - | - | - | - |
| 1778101575 | 20° C | 39% | 1012.8 hPa | - | - | - | - |
| 1778099774 | 20° C | 38% | 1012.6 hPa | - | - | - | - |
| 1778098874 | 20.56° C | 38% | 1012.5 hPa | - | - | - | - |
| 1778097974 | 20.56° C | 37% | 1012.5 hPa | - | - | - | - |
| 1778097074 | 21.11° C | 36% | 1012.4 hPa | - | - | - | - |
| 1778096174 | 21.11° C | 35% | 1012.3 hPa | - | - | - | - |
| 1778095274 | 21.67° C | 35% | 1012.3 hPa | - | - | - | - |
| 1778094376 | 21.67° C | 35% | 1012.1 hPa | - | - | - | - |
* Rain since midnight (hover to see other rain measurements)
** Current wind speed in m/s (hover to see current wind gust speed)